Boffa — 3XBF — position and weather

sailwx.info

Track history (hours):
 
Tides and Currents Weather Stations Pressure Air Temp Water Temp Dewpoint Dewpoint Depression Visibility Wind Speed Wind Dir Waves Ship Positions

Boffa

Last reported at 2018-Jun-03 00:48 UTC. Time now 2018-Jun-24 07:11 UTC.
Position N 09°31' W 013°43'.
Warning: this ship's position is 21 days out of date.

; draft 5 m.

Type: Fishing. MMSI: 312405000.

Date/timePositionNaut miles runAvg speedWind from/ knotsBaromVisibWave heightAir tempDewpointWater temp
2018-Jun-03 00:48N 09°31' W 013°43'0 0.0
2018-Jun-03 00:30N 09°31' W 013°43'0 0.0
2018-Jun-03 00:00N 09°31' W 013°43'0 0.0
2018-Jun-02 23:30N 09°31' W 013°43'0 0.0
2018-Jun-02 23:00N 09°31' W 013°43'0 0.0
2018-Jun-02 22:30N 09°31' W 013°43'0 0.0
2018-Jun-02 22:00N 09°31' W 013°43'0 0.0
2018-Jun-02 21:30N 09°31' W 013°43'0 0.0
2018-Jun-02 21:00N 09°31' W 013°43'0 0.0
2018-Jun-02 20:30N 09°31' W 013°43'0 0.0
2018-Jun-02 20:00N 09°31' W 013°43'0 0.0
2018-Jun-02 19:30N 09°31' W 013°43'0 0.0
2018-Jun-02 19:00N 09°31' W 013°43'0 0.0
2018-Jun-02 18:30N 09°31' W 013°43'0 0.0
2018-Jun-02 18:00N 09°31' W 013°43'0 0.0
2018-Jun-02 17:30N 09°31' W 013°43'0 0.0
2018-Jun-02 17:00N 09°31' W 013°43'0 0.0
2018-Jun-02 16:30N 09°31' W 013°43'0 0.0
2018-Jun-02 16:00N 09°31' W 013°43'0 0.0
2018-Jun-02 15:30N 09°31' W 013°43'0 0.0
2018-Jun-02 15:00N 09°31' W 013°43'0 0.0
2018-Jun-02 14:30N 09°31' W 013°43'0 0.0
2018-Jun-02 14:00N 09°31' W 013°43'0 0.0
2018-Jun-02 13:30N 09°31' W 013°43'0 0.0
2018-Jun-02 13:00N 09°31' W 013°43'0 0.0
2018-Jun-02 12:30N 09°31' W 013°43'0 0.0
2018-Jun-02 12:00N 09°31' W 013°43'0 0.0
2018-Jun-02 11:30N 09°31' W 013°43'0 0.0
2018-Jun-02 11:00N 09°31' W 013°43'0 0.0
2018-Jun-02 10:30N 09°31' W 013°43'0 0.0
2018-Jun-02 10:00N 09°31' W 013°43'0 0.0
2018-Jun-02 09:30N 09°31' W 013°43'0 1.0
2018-Jun-02 09:00N 09°31' W 013°43'1 2.3
2018-Jun-02 08:28N 09°30' W 013°44'0 0.0
2018-Jun-02 07:58N 09°30' W 013°44'0 0.0
2018-Jun-02 07:28N 09°30' W 013°44'0 0.1
2018-Jun-02 07:00N 09°30' W 013°44'3 6.1
2018-Jun-02 06:30N 09°27' W 013°44'3 6.9
2018-Jun-02 06:00N 09°24' W 013°45'4 7.7
2018-Jun-02 05:30N 09°21' W 013°47'4 8.7
2018-Jun-02 05:00N 09°20' W 013°52'116 9.1
2018-Jun-01 16:12N 09°45' W 015°47'2 8.5
2018-Jun-01 15:57N 09°46' W 015°49'  
2018-May-27 14:12N 09°36' W 015°34'90 2.5
2018-May-26 02:25N 09°23' W 014°04'410.0
2018-May-26 02:00N 09°23' W 014°00'510.0
2018-May-26 01:30N 09°23' W 013°55'5 9.9
2018-May-26 01:00N 09°23' W 013°50'5 9.6
2018-May-26 00:30N 09°24' W 013°45'5 9.2
2018-May-26 00:00N 09°28' W 013°43'0 0.1
2018-May-25 23:30N 09°28' W 013°43'0 0.1
2018-May-25 23:00N 09°28' W 013°43'4 8.4
2018-May-25 22:30N 09°24' W 013°45'510.2
2018-May-25 22:00N 09°21' W 013°49'510.4
2018-May-25 21:30N 09°20' W 013°54'510.3
2018-May-25 21:00N 09°18' W 013°59'710.2
2018-May-25 20:19N 09°16' W 014°06'4410.9
2018-May-25 16:15N 09°04' W 014°49'56 3.9
2018-May-25 01:47N 09°38' W 015°35'1 3.3
2018-May-25 01:30N 09°39' W 015°35'6 3.3
2018-May-24 23:35N 09°45' W 015°36'0 4.9
2018-May-24 23:29N 09°45' W 015°37'2 4.3
2018-May-24 22:59N 09°45' W 015°39'4 8.8
2018-May-24 22:30N 09°47' W 015°42'510.9
2018-May-24 22:00N 09°51' W 015°46'2 3.5
2018-May-24 21:22N 09°53' W 015°45'5 4.6
2018-May-24 20:14N 09°49' W 015°41'1 4.7
2018-May-24 20:00N 09°49' W 015°41'5 2.6
2018-May-24 17:58N 09°44' W 015°43'13 0.9
2018-May-24 03:00N 09°35' W 015°34'2 4.6
2018-May-24 02:31N 09°36' W 015°35'2 3.5
2018-May-24 01:52N 09°35' W 015°34'  
Track history (hours):
 
Tides and Currents Weather Stations Pressure Air Temp Water Temp Dewpoint Dewpoint Depression Visibility Wind Speed Wind Dir Waves Ship Positions

Boffa

Last reported at 2018-Jun-03 00:48 UTC. Time now 2018-Jun-24 07:11 UTC.
Position N 09°31' W 013°43'.
Warning: this ship's position is 21 days out of date.

; draft 5 m.

Type: Fishing. MMSI: 312405000.

Date/timePositionNaut miles runAvg speedWind from/ knotsBaromVisibWave heightAir tempDewpointWater temp
2018-Jun-03 00:48N 09°31' W 013°43'0 0.0
2018-Jun-03 00:30N 09°31' W 013°43'0 0.0
2018-Jun-03 00:00N 09°31' W 013°43'0 0.0
2018-Jun-02 23:30N 09°31' W 013°43'0 0.0
2018-Jun-02 23:00N 09°31' W 013°43'0 0.0
2018-Jun-02 22:30N 09°31' W 013°43'0 0.0
2018-Jun-02 22:00N 09°31' W 013°43'0 0.0
2018-Jun-02 21:30N 09°31' W 013°43'0 0.0
2018-Jun-02 21:00N 09°31' W 013°43'0 0.0
2018-Jun-02 20:30N 09°31' W 013°43'0 0.0
2018-Jun-02 20:00N 09°31' W 013°43'0 0.0
2018-Jun-02 19:30N 09°31' W 013°43'0 0.0
2018-Jun-02 19:00N 09°31' W 013°43'0 0.0
2018-Jun-02 18:30N 09°31' W 013°43'0 0.0
2018-Jun-02 18:00N 09°31' W 013°43'0 0.0
2018-Jun-02 17:30N 09°31' W 013°43'0 0.0
2018-Jun-02 17:00N 09°31' W 013°43'0 0.0
2018-Jun-02 16:30N 09°31' W 013°43'0 0.0
2018-Jun-02 16:00N 09°31' W 013°43'0 0.0
2018-Jun-02 15:30N 09°31' W 013°43'0 0.0
2018-Jun-02 15:00N 09°31' W 013°43'0 0.0
2018-Jun-02 14:30N 09°31' W 013°43'0 0.0
2018-Jun-02 14:00N 09°31' W 013°43'0 0.0
2018-Jun-02 13:30N 09°31' W 013°43'0 0.0
2018-Jun-02 13:00N 09°31' W 013°43'0 0.0
2018-Jun-02 12:30N 09°31' W 013°43'0 0.0
2018-Jun-02 12:00N 09°31' W 013°43'0 0.0
2018-Jun-02 11:30N 09°31' W 013°43'0 0.0
2018-Jun-02 11:00N 09°31' W 013°43'0 0.0
2018-Jun-02 10:30N 09°31' W 013°43'0 0.0
2018-Jun-02 10:00N 09°31' W 013°43'0 0.0
2018-Jun-02 09:30N 09°31' W 013°43'0 1.0
2018-Jun-02 09:00N 09°31' W 013°43'1 2.3
2018-Jun-02 08:28N 09°30' W 013°44'0 0.0
2018-Jun-02 07:58N 09°30' W 013°44'0 0.0
2018-Jun-02 07:28N 09°30' W 013°44'0 0.1
2018-Jun-02 07:00N 09°30' W 013°44'3 6.1
2018-Jun-02 06:30N 09°27' W 013°44'3 6.9
2018-Jun-02 06:00N 09°24' W 013°45'4 7.7
2018-Jun-02 05:30N 09°21' W 013°47'4 8.7
2018-Jun-02 05:00N 09°20' W 013°52'116 9.1
2018-Jun-01 16:12N 09°45' W 015°47'2 8.5
2018-Jun-01 15:57N 09°46' W 015°49'  
2018-May-27 14:12N 09°36' W 015°34'90 2.5
2018-May-26 02:25N 09°23' W 014°04'410.0
2018-May-26 02:00N 09°23' W 014°00'510.0
2018-May-26 01:30N 09°23' W 013°55'5 9.9
2018-May-26 01:00N 09°23' W 013°50'5 9.6
2018-May-26 00:30N 09°24' W 013°45'5 9.2
2018-May-26 00:00N 09°28' W 013°43'0 0.1
2018-May-25 23:30N 09°28' W 013°43'0 0.1
2018-May-25 23:00N 09°28' W 013°43'4 8.4
2018-May-25 22:30N 09°24' W 013°45'510.2
2018-May-25 22:00N 09°21' W 013°49'510.4
2018-May-25 21:30N 09°20' W 013°54'510.3
2018-May-25 21:00N 09°18' W 013°59'710.2
2018-May-25 20:19N 09°16' W 014°06'4410.9
2018-May-25 16:15N 09°04' W 014°49'56 3.9
2018-May-25 01:47N 09°38' W 015°35'1 3.3
2018-May-25 01:30N 09°39' W 015°35'6 3.3
2018-May-24 23:35N 09°45' W 015°36'0 4.9
2018-May-24 23:29N 09°45' W 015°37'2 4.3
2018-May-24 22:59N 09°45' W 015°39'4 8.8
2018-May-24 22:30N 09°47' W 015°42'510.9
2018-May-24 22:00N 09°51' W 015°46'2 3.5
2018-May-24 21:22N 09°53' W 015°45'5 4.6
2018-May-24 20:14N 09°49' W 015°41'1 4.7
2018-May-24 20:00N 09°49' W 015°41'5 2.6
2018-May-24 17:58N 09°44' W 015°43'13 0.9
2018-May-24 03:00N 09°35' W 015°34'2 4.6
2018-May-24 02:31N 09°36' W 015°35'2 3.5
2018-May-24 01:52N 09°35' W 015°34'  

Dump ship's entire track history